createdAt,value
2018-04-02T00:00:16.791Z,0.00
2018-04-02T00:01:16.482Z,0.00
2018-04-02T00:02:16.681Z,0.00
2018-04-02T00:03:16.698Z,0.00
2018-04-02T00:04:16.614Z,0.00
2018-04-02T00:05:16.686Z,0.00
2018-04-02T00:06:25.306Z,0.00
2018-04-02T00:08:10.022Z,0.00
2018-04-02T00:09:09.957Z,0.00
2018-04-02T00:10:09.724Z,0.00
2018-04-02T00:11:09.940Z,0.00
2018-04-02T00:12:09.839Z,0.00
2018-04-02T00:13:09.814Z,0.00
2018-04-02T00:14:09.840Z,0.00
2018-04-02T00:15:09.792Z,0.00
2018-04-02T00:16:09.662Z,0.00
2018-04-02T00:17:19.468Z,0.00
2018-04-02T00:19:03.135Z,0.00
2018-04-02T00:20:02.988Z,0.00
2018-04-02T00:21:03.119Z,0.00
2018-04-02T00:22:03.089Z,0.00
2018-04-02T00:23:03.066Z,0.00
2018-04-02T00:24:03.046Z,0.00
2018-04-02T00:25:02.991Z,0.00
2018-04-02T00:26:02.862Z,0.00
2018-04-02T00:27:02.979Z,0.00
2018-04-02T00:28:02.921Z,0.00
2018-04-02T00:29:12.436Z,0.00
2018-04-02T00:30:56.277Z,0.00
2018-04-02T00:31:56.203Z,0.00
2018-04-02T00:33:05.420Z,0.00
2018-04-02T00:34:49.624Z,0.00
2018-04-02T00:35:49.631Z,0.00
2018-04-02T00:36:49.534Z,0.00
2018-04-02T00:37:49.482Z,0.00
2018-04-02T00:38:49.460Z,0.00
2018-04-02T00:39:49.331Z,0.00
2018-04-02T00:40:49.460Z,0.00
2018-04-02T00:41:49.414Z,0.00
2018-04-02T00:42:49.421Z,0.00
2018-04-02T00:43:49.421Z,0.00
2018-04-02T00:44:49.396Z,0.00
2018-04-02T00:45:49.204Z,0.00
2018-04-02T00:46:58.743Z,0.00
2018-04-02T00:48:42.725Z,0.00
2018-04-02T00:49:42.719Z,0.00
2018-04-02T00:50:42.378Z,0.00
2018-04-02T00:51:42.603Z,0.00
2018-04-02T00:52:42.610Z,0.00
2018-04-02T00:53:42.649Z,0.00
2018-04-02T00:54:42.572Z,0.00
2018-04-02T00:55:42.575Z,0.00
2018-04-02T00:56:51.818Z,0.00
2018-04-02T00:58:35.978Z,0.00
2018-04-02T00:59:35.885Z,0.00
2018-04-02T01:00:35.787Z,0.00
2018-04-02T01:01:35.863Z,0.00
2018-04-02T01:02:35.837Z,0.00
2018-04-02T01:03:35.831Z,0.00
2018-04-02T01:04:35.542Z,0.00
2018-04-02T01:05:35.754Z,0.00
2018-04-02T01:06:35.800Z,0.00
2018-04-02T01:07:35.697Z,0.00
2018-04-02T01:08:35.490Z,0.00
2018-04-02T01:09:35.343Z,0.00
2018-04-02T01:10:35.407Z,0.00
2018-04-02T01:11:35.648Z,0.00
2018-04-02T01:12:35.647Z,0.00
2018-04-02T01:13:35.648Z,0.00
2018-04-02T01:14:35.625Z,0.00
2018-04-02T01:15:35.564Z,0.00
2018-04-02T01:16:35.535Z,0.00
2018-04-02T01:17:35.520Z,0.00
2018-04-02T01:18:35.506Z,0.00
2018-04-02T01:19:35.471Z,0.00
2018-04-02T01:20:35.151Z,0.00
2018-04-02T01:21:35.536Z,0.00
2018-04-02T06:41:44.880Z,3328.00
2018-04-02T06:42:35.665Z,3368.00
2018-04-02T06:43:35.572Z,3396.00
2018-04-02T06:44:35.504Z,3416.00
2018-04-02T06:45:35.552Z,3444.00
2018-04-02T06:46:35.701Z,3488.00
2018-04-02T06:47:35.504Z,3532.00
2018-04-02T06:48:35.293Z,3612.00
2018-04-02T06:49:35.665Z,3728.00
2018-04-02T06:50:36.072Z,3964.00
2018-04-02T06:51:35.456Z,4380.00
2018-04-02T06:52:35.101Z,4816.00
2018-04-02T06:53:35.010Z,5276.00
2018-04-02T06:54:44.790Z,5896.00
2018-04-02T06:56:38.747Z,6516.00
2018-04-02T06:57:28.628Z,6500.00
2018-04-02T06:58:28.471Z,6500.00
2018-04-02T06:59:37.329Z,6512.00
2018-04-02T07:01:21.795Z,6724.00
2018-04-02T07:02:21.694Z,6912.00
2018-04-02T07:03:21.712Z,7056.00
2018-04-02T07:04:21.893Z,7184.00
2018-04-02T07:05:21.811Z,7404.00
2018-04-02T07:06:21.513Z,7672.00
2018-04-02T07:07:21.496Z,7928.00
2018-04-02T07:08:21.477Z,8188.00
2018-04-02T07:09:21.455Z,8496.00
2018-04-02T07:10:21.464Z,8820.00
2018-04-02T07:11:21.416Z,9084.00
2018-04-02T07:12:21.419Z,9360.00
2018-04-02T07:13:21.393Z,9700.00
2018-04-02T07:14:21.358Z,10092.00
2018-04-02T07:15:21.355Z,10384.00
2018-04-02T07:16:21.336Z,10644.00
2018-04-02T07:17:21.360Z,10860.00
2018-04-02T07:18:21.286Z,10952.00
2018-04-02T07:19:21.288Z,11088.00
2018-04-02T07:20:21.284Z,11192.00
2018-04-02T07:21:21.268Z,11400.00
2018-04-02T07:22:21.240Z,11496.00
2018-04-02T07:23:21.213Z,11564.00
2018-04-02T07:24:21.179Z,11560.00
2018-04-02T07:25:21.168Z,11600.00
2018-04-02T07:26:21.156Z,11640.00
2018-04-02T07:27:21.130Z,11736.00
2018-04-02T07:28:21.108Z,11656.00
2018-04-02T07:29:21.102Z,11656.00
2018-04-02T07:30:21.082Z,11732.00
2018-04-02T07:31:21.070Z,11868.00
2018-04-02T07:32:21.045Z,12028.00
2018-04-02T07:33:21.060Z,12236.00
2018-04-02T07:34:21.018Z,12432.00
2018-04-02T07:35:21.024Z,12604.00
2018-04-02T07:36:20.990Z,12612.00
2018-04-02T07:37:20.996Z,12648.00
2018-04-02T07:38:20.960Z,12652.00
2018-04-02T07:39:20.929Z,12648.00
2018-04-02T07:40:20.927Z,12700.00
2018-04-02T07:41:20.899Z,12936.00
2018-04-02T07:42:20.928Z,13136.00
2018-04-02T07:43:20.887Z,13276.00
2018-04-02T07:44:20.857Z,13416.00
2018-04-02T07:45:20.836Z,13496.00
2018-04-02T07:46:20.844Z,13684.00
2018-04-02T07:47:20.807Z,13724.00
2018-04-02T07:48:20.797Z,13868.00
2018-04-02T07:49:20.827Z,14208.00
2018-04-02T07:50:20.800Z,14508.00
2018-04-02T07:51:20.736Z,14780.00
2018-04-02T07:52:20.717Z,14944.00
2018-04-02T07:53:20.714Z,15176.00
2018-04-02T07:54:20.677Z,15236.00
2018-04-02T07:55:20.665Z,15396.00
2018-04-02T07:56:20.670Z,15692.00
2018-04-02T07:57:20.640Z,15944.00
2018-04-02T07:58:20.627Z,16216.00
2018-04-02T07:59:20.600Z,16284.00
2018-04-02T08:00:20.600Z,16148.00
2018-04-02T08:01:20.597Z,16120.00
2018-04-02T08:02:20.559Z,16364.00
2018-04-02T08:03:20.549Z,16716.00
2018-04-02T08:04:20.556Z,16844.00
2018-04-02T08:05:20.520Z,16964.00
2018-04-02T08:06:20.498Z,17184.00
2018-04-02T08:07:20.482Z,16812.00
2018-04-02T08:08:20.470Z,16660.00
2018-04-02T08:09:20.483Z,16796.00
2018-04-02T08:10:20.435Z,17280.00
2018-04-02T08:11:20.432Z,17568.00
2018-04-02T08:12:20.445Z,17856.00
2018-04-02T08:13:20.390Z,18144.00
2018-04-02T08:14:20.378Z,18176.00
2018-04-02T08:15:20.379Z,18272.00
2018-04-02T08:16:20.339Z,18240.00
2018-04-02T08:17:20.345Z,18304.00
2018-04-02T08:18:20.312Z,18496.00
2018-04-02T08:19:20.288Z,18848.00
2018-04-02T08:20:20.295Z,19104.00
2018-04-02T08:21:20.275Z,19392.00
2018-04-02T08:22:20.265Z,19616.00
2018-04-02T08:23:20.246Z,19648.00
2018-04-02T08:24:20.231Z,19904.00
2018-04-02T08:25:20.234Z,20064.00
2018-04-02T08:26:20.208Z,19968.00
2018-04-02T08:27:20.179Z,19744.00
2018-04-02T08:28:20.250Z,19744.00
2018-04-02T08:29:20.157Z,20064.00
2018-04-02T08:30:20.185Z,20224.00
2018-04-02T08:31:20.132Z,20416.00
2018-04-02T08:32:20.119Z,20576.00
2018-04-02T08:33:20.112Z,20736.00
2018-04-02T08:34:20.084Z,21024.00
2018-04-02T08:35:20.096Z,21312.00
2018-04-02T08:36:20.054Z,21504.00
2018-04-02T08:37:20.049Z,21760.00
2018-04-02T08:38:20.028Z,22304.00
2018-04-02T08:39:20.024Z,22752.00
2018-04-02T08:40:20.004Z,22784.00
2018-04-02T08:41:19.991Z,22880.00
2018-04-02T08:42:20.004Z,22912.00
2018-04-02T08:43:19.997Z,23008.00
2018-04-02T08:44:20.022Z,22784.00
2018-04-02T08:45:19.953Z,22528.00
2018-04-02T08:46:19.932Z,22400.00
2018-04-02T08:47:19.940Z,22336.00
2018-04-02T08:48:19.920Z,22176.00
2018-04-02T08:49:19.889Z,22016.00
2018-04-02T08:50:19.877Z,21792.00
2018-04-02T08:51:19.853Z,21728.00
2018-04-02T08:52:19.854Z,22080.00
2018-04-02T08:53:19.852Z,22048.00
2018-04-02T08:54:19.818Z,21920.00
2018-04-02T08:55:19.800Z,21984.00
2018-04-02T08:56:19.800Z,21216.00
2018-04-02T08:57:19.778Z,19520.00
2018-04-02T08:58:19.766Z,19392.00
2018-04-02T08:59:19.779Z,19200.00
2018-04-02T09:00:19.737Z,19136.00
2018-04-02T09:01:19.724Z,20896.00
2018-04-02T09:02:19.708Z,19392.00
2018-04-02T09:03:19.710Z,21792.00
2018-04-02T09:04:19.705Z,29984.00
2018-04-02T09:05:19.670Z,34016.00
2018-04-02T09:06:19.679Z,29792.00
2018-04-02T09:07:19.650Z,36480.00
2018-04-02T09:08:19.635Z,42016.00
2018-04-02T09:09:19.641Z,45088.00
2018-04-02T09:10:19.610Z,46112.00
2018-04-02T09:11:19.600Z,47616.00
2018-04-02T09:12:19.602Z,48096.00
2018-04-02T09:13:19.617Z,46112.00
2018-04-02T09:14:19.581Z,42336.00
2018-04-02T09:15:19.565Z,36096.00
2018-04-02T09:16:19.569Z,25248.00
2018-04-02T09:17:19.538Z,23264.00
2018-04-02T09:18:19.555Z,35232.00
2018-04-02T09:19:19.542Z,38208.00
2018-04-02T09:20:19.529Z,35264.00
2018-04-02T09:21:19.504Z,32896.00
2018-04-02T09:22:19.494Z,24896.00
2018-04-02T09:23:19.500Z,11304.00
2018-04-02T09:24:19.474Z,11624.00
2018-04-02T09:25:19.471Z,20128.00
2018-04-02T09:26:19.475Z,33632.00
2018-04-02T09:27:19.454Z,31552.00
2018-04-02T09:28:19.461Z,22432.00
2018-04-02T09:29:19.436Z,15732.00
2018-04-02T09:30:19.429Z,12592.00
2018-04-02T09:31:19.419Z,13252.00
2018-04-02T09:32:19.403Z,25088.00
2018-04-02T09:33:19.406Z,31840.00
2018-04-02T09:34:19.391Z,21856.00
2018-04-02T09:35:19.389Z,21856.00
2018-04-02T09:36:19.371Z,30080.00
2018-04-02T09:37:19.371Z,26784.00
2018-04-02T09:38:19.373Z,23904.00
2018-04-02T09:39:19.368Z,21568.00
2018-04-02T09:40:19.343Z,30304.00
2018-04-02T09:41:19.329Z,46336.00
2018-04-02T09:42:19.353Z,43840.00
2018-04-02T09:43:19.313Z,35168.00
2018-04-02T09:44:19.304Z,32608.00
2018-04-02T09:45:19.289Z,36928.00
2018-04-02T09:46:19.287Z,33344.00
2018-04-02T09:47:19.284Z,29600.00
2018-04-02T09:48:19.273Z,30048.00
2018-04-02T09:49:19.258Z,40256.00
2018-04-02T09:50:19.261Z,43648.00
2018-04-02T09:51:19.273Z,47104.00
2018-04-02T09:52:19.244Z,43168.00
2018-04-02T09:53:19.238Z,28704.00
2018-04-02T09:54:19.308Z,26624.00
2018-04-02T09:55:19.216Z,37056.00
2018-04-02T09:56:19.255Z,44160.00
2018-04-02T09:57:19.214Z,47840.00
2018-04-02T09:58:19.225Z,50016.00
2018-04-02T09:59:19.261Z,47872.00
2018-04-02T10:00:19.187Z,37408.00
2018-04-02T10:01:19.194Z,30272.00
2018-04-02T10:02:19.200Z,33504.00
2018-04-02T10:03:19.180Z,37408.00
2018-04-02T10:04:19.162Z,30432.00
2018-04-02T10:05:19.167Z,21696.00
2018-04-02T10:06:19.167Z,26400.00
2018-04-02T10:07:19.152Z,37056.00
2018-04-02T10:08:19.148Z,46336.00
2018-04-02T10:09:19.152Z,52800.00
2018-04-02T10:10:19.237Z,48224.00
2018-04-02T10:11:19.185Z,43200.00
2018-04-02T10:12:19.126Z,41280.00
2018-04-02T10:13:19.107Z,43584.00
2018-04-02T10:14:19.116Z,43168.00
2018-04-02T10:15:19.139Z,45248.00
2018-04-02T10:16:19.110Z,46080.00
2018-04-02T10:17:19.113Z,47424.00
2018-04-02T10:18:19.104Z,42976.00
2018-04-02T10:19:19.108Z,43904.00
2018-04-02T10:20:19.107Z,44608.00
2018-04-02T10:21:19.091Z,46720.00
2018-04-02T10:22:19.084Z,45888.00
2018-04-02T10:23:19.084Z,46176.00
2018-04-02T10:24:19.068Z,43680.00
2018-04-02T10:25:19.074Z,42944.00
2018-04-02T10:26:19.126Z,42688.00
2018-04-02T10:27:19.081Z,44512.00
2018-04-02T10:28:19.071Z,44832.00
2018-04-02T10:29:19.100Z,47872.00
2018-04-02T10:30:19.065Z,51392.00
2018-04-02T10:31:19.062Z,61056.00
2018-04-02T10:32:19.058Z,62880.00
2018-04-02T10:33:19.068Z,51680.00
2018-04-02T10:34:19.052Z,41952.00
2018-04-02T10:35:19.078Z,38976.00
2018-04-02T10:36:19.042Z,41664.00
2018-04-02T10:37:19.096Z,45504.00
2018-04-02T10:38:19.034Z,46656.00
2018-04-02T10:39:19.029Z,48256.00
2018-04-02T10:40:19.058Z,51328.00
2018-04-02T10:41:19.033Z,54528.00
2018-04-02T10:42:19.026Z,53184.00
2018-04-02T10:43:19.048Z,47392.00
2018-04-02T10:44:19.046Z,49952.00
2018-04-02T10:45:19.029Z,51616.00
2018-04-02T10:46:19.013Z,51232.00
2018-04-02T10:47:19.004Z,53856.00
2018-04-02T10:48:19.007Z,60480.00
2018-04-02T10:49:19.022Z,63232.00
2018-04-02T10:50:19.002Z,56736.00
2018-04-02T10:51:19.026Z,52352.00
2018-04-02T10:52:19.010Z,52352.00
2018-04-02T10:53:19.007Z,51456.00
2018-04-02T10:54:19.017Z,54976.00
2018-04-02T10:55:18.988Z,65888.00
2018-04-02T10:56:19.006Z,75104.00
2018-04-02T10:57:18.985Z,72960.00
2018-04-02T10:58:18.988Z,44128.00
2018-04-02T10:59:18.994Z,47168.00
2018-04-02T11:00:18.997Z,52416.00
2018-04-02T11:01:18.988Z,67008.00
2018-04-02T11:02:18.987Z,72832.00
2018-04-02T11:03:18.985Z,74368.00
2018-04-02T11:04:18.984Z,64256.00
2018-04-02T11:05:18.981Z,57632.00
2018-04-02T11:06:19.007Z,56384.00
2018-04-02T11:07:18.998Z,58272.00
2018-04-02T11:08:18.997Z,54592.00
2018-04-02T11:09:18.994Z,57504.00
2018-04-02T11:10:18.988Z,82368.00
2018-04-02T11:11:19.006Z,96928.00
2018-04-02T11:12:18.997Z,90720.00
2018-04-02T11:13:18.978Z,76608.00
2018-04-02T11:14:18.997Z,86176.00
2018-04-02T11:15:19.000Z,85408.00
2018-04-02T11:16:18.994Z,88000.00
2018-04-02T11:17:18.988Z,76384.00
2018-04-02T11:18:18.994Z,88672.00
2018-04-02T11:19:19.014Z,104512.00
2018-04-02T11:20:18.994Z,111264.00
2018-04-02T11:21:18.988Z,123872.00
2018-04-02T11:22:18.994Z,123456.00
2018-04-02T11:23:18.988Z,116640.00
2018-04-02T11:24:19.024Z,111936.00
2018-04-02T11:25:18.988Z,112352.00
2018-04-02T11:26:18.985Z,117312.00
2018-04-02T11:27:18.991Z,116672.00
2018-04-02T11:28:18.992Z,119744.00
2018-04-02T11:29:19.004Z,116576.00
2018-04-02T11:30:18.992Z,118784.00
2018-04-02T11:31:19.014Z,124032.00
2018-04-02T11:32:18.994Z,130208.00
2018-04-02T11:33:18.995Z,136768.00
2018-04-02T11:34:19.030Z,145024.00
2018-04-02T11:35:18.989Z,139552.00
2018-04-02T11:36:19.001Z,118336.00
2018-04-02T11:37:18.988Z,146784.00
2018-04-02T11:38:18.994Z,158688.00
2018-04-02T11:39:19.030Z,150272.00
2018-04-02T11:40:18.995Z,129792.00
2018-04-02T11:41:19.001Z,119616.00
2018-04-02T11:42:18.995Z,106016.00
2018-04-02T11:43:18.994Z,88352.00
2018-04-02T11:44:19.004Z,76736.00
2018-04-02T11:45:19.001Z,64768.00
2018-04-02T11:46:19.014Z,59936.00
2018-04-02T11:47:19.007Z,55712.00
2018-04-02T11:48:19.007Z,53888.00
2018-04-02T11:49:18.998Z,54016.00
2018-04-02T11:50:19.011Z,51296.00
2018-04-02T11:51:19.004Z,41856.00
2018-04-02T11:52:19.020Z,57504.00
2018-04-02T11:53:18.998Z,57760.00
2018-04-02T11:54:19.010Z,53152.00
2018-04-02T11:55:18.998Z,51328.00
2018-04-02T11:56:19.013Z,48640.00
2018-04-02T11:57:19.013Z,47104.00
2018-04-02T11:58:19.014Z,46624.00
2018-04-02T11:59:19.008Z,44896.00
2018-04-02T12:00:19.043Z,44864.00
2018-04-02T12:01:19.014Z,46432.00
2018-04-02T12:02:19.029Z,44960.00
2018-04-02T12:03:19.052Z,45056.00
2018-04-02T12:04:19.029Z,44928.00
2018-04-02T12:05:19.029Z,44096.00
2018-04-02T12:06:19.010Z,42464.00
2018-04-02T12:07:19.008Z,42240.00
2018-04-02T12:08:19.039Z,40928.00
2018-04-02T12:09:19.043Z,41280.00
2018-04-02T12:10:19.020Z,40192.00
2018-04-02T12:11:19.033Z,40832.00
2018-04-02T12:12:19.026Z,37888.00
2018-04-02T12:13:19.043Z,38208.00
2018-04-02T12:14:19.031Z,39328.00
2018-04-02T12:15:19.017Z,34336.00
2018-04-02T12:16:19.037Z,34336.00
2018-04-02T12:17:19.027Z,35104.00
2018-04-02T12:18:19.021Z,35776.00
2018-04-02T12:19:19.017Z,32832.00
2018-04-02T12:20:19.781Z,32512.00
2018-04-02T12:21:19.039Z,35232.00
2018-04-02T12:22:19.020Z,36128.00
2018-04-02T12:23:19.027Z,34880.00
2018-04-02T12:24:19.033Z,35648.00
2018-04-02T12:25:19.027Z,35936.00
2018-04-02T12:26:19.049Z,33120.00
2018-04-02T12:27:19.041Z,31168.00
2018-04-02T12:28:19.024Z,31808.00
2018-04-02T12:29:19.037Z,30240.00
2018-04-02T12:30:19.021Z,29504.00
2018-04-02T12:31:19.014Z,29408.00
2018-04-02T12:32:19.027Z,29824.00
2018-04-02T12:33:19.020Z,29216.00
2018-04-02T12:34:19.046Z,32320.00
2018-04-02T12:35:19.020Z,32384.00
2018-04-02T12:36:19.014Z,33312.00
2018-04-02T12:37:19.024Z,31872.00
2018-04-02T12:38:19.017Z,31264.00
2018-04-02T12:39:19.034Z,31008.00
2018-04-02T12:40:19.030Z,31328.00
2018-04-02T12:41:19.014Z,29952.00
2018-04-02T12:42:19.065Z,31712.00
2018-04-02T12:43:19.067Z,31616.00
2018-04-02T12:44:19.099Z,31648.00
2018-04-02T12:45:19.048Z,31264.00
2018-04-02T12:46:19.037Z,30720.00
2018-04-02T12:47:19.041Z,31008.00
2018-04-02T12:48:19.040Z,30912.00
2018-04-02T12:49:19.035Z,31456.00
2018-04-02T12:50:19.028Z,31392.00
2018-04-02T12:51:19.026Z,31616.00
2018-04-02T12:52:19.062Z,30912.00
2018-04-02T12:53:19.033Z,30624.00
2018-04-02T12:54:19.027Z,29024.00
2018-04-02T12:55:19.041Z,29632.00
2018-04-02T12:56:19.047Z,29088.00
2018-04-02T12:57:19.030Z,28064.00
2018-04-02T12:58:19.030Z,26816.00
2018-04-02T12:59:19.034Z,27296.00
2018-04-02T13:00:19.027Z,26368.00
2018-04-02T13:01:19.030Z,26592.00
2018-04-02T13:02:19.046Z,25856.00
2018-04-02T13:03:19.037Z,26368.00
2018-04-02T13:04:19.050Z,26368.00
2018-04-02T13:05:19.059Z,25856.00
2018-04-02T13:06:19.027Z,26560.00
2018-04-02T13:07:19.035Z,26752.00
2018-04-02T13:08:19.030Z,27424.00
2018-04-02T13:09:19.066Z,27872.00
2018-04-02T13:10:19.043Z,28800.00
2018-04-02T13:11:19.056Z,28608.00
2018-04-02T13:12:19.034Z,29056.00
2018-04-02T13:13:19.028Z,29376.00
2018-04-02T13:14:19.066Z,30208.00
2018-04-02T13:15:19.030Z,30720.00
2018-04-02T13:16:19.018Z,30912.00
2018-04-02T13:17:19.030Z,30592.00
2018-04-02T13:18:19.043Z,31264.00
2018-04-02T13:19:19.060Z,27680.00
2018-04-02T13:20:19.049Z,25216.00
2018-04-02T13:21:19.041Z,28128.00
2018-04-02T13:22:19.025Z,29376.00
2018-04-02T13:23:19.024Z,28896.00
2018-04-02T13:24:19.037Z,28896.00
2018-04-02T13:25:19.050Z,27904.00
2018-04-02T13:26:19.047Z,27264.00
2018-04-02T13:27:19.024Z,26336.00
2018-04-02T13:28:19.053Z,26400.00
2018-04-02T13:29:19.028Z,27360.00
2018-04-02T13:30:19.028Z,27488.00
2018-04-02T13:31:19.037Z,27456.00
2018-04-02T13:32:19.034Z,26848.00
2018-04-02T13:33:19.041Z,26080.00
2018-04-02T13:34:19.018Z,24928.00
2018-04-02T13:35:19.027Z,24224.00
2018-04-02T13:36:19.020Z,24256.00
2018-04-02T13:37:19.024Z,24128.00
2018-04-02T13:38:19.005Z,23616.00
2018-04-02T13:39:19.028Z,24768.00
2018-04-02T13:40:18.995Z,24480.00
2018-04-02T13:41:19.831Z,25248.00
2018-04-02T13:42:19.021Z,26144.00
2018-04-02T13:43:18.998Z,27104.00
2018-04-02T13:44:19.005Z,28032.00
2018-04-02T13:45:18.995Z,27520.00
2018-04-02T13:46:19.016Z,23808.00
2018-04-02T13:47:19.011Z,22240.00
2018-04-02T13:48:19.004Z,22912.00
2018-04-02T13:49:18.992Z,25088.00
2018-04-02T13:50:19.020Z,25056.00
2018-04-02T13:51:18.996Z,21376.00
2018-04-02T13:52:18.994Z,23616.00
2018-04-02T13:53:19.002Z,19072.00
2018-04-02T13:54:18.999Z,17632.00
2018-04-02T13:55:18.979Z,14672.00
2018-04-02T13:56:18.969Z,17472.00
2018-04-02T13:57:18.970Z,17888.00
2018-04-02T13:58:18.976Z,15060.00
2018-04-02T13:59:18.961Z,19680.00
2018-04-02T14:00:18.998Z,19424.00
2018-04-02T14:01:18.976Z,33536.00
2018-04-02T14:02:18.969Z,22944.00
2018-04-02T14:03:18.958Z,39616.00
2018-04-02T14:04:18.948Z,59648.00
2018-04-02T14:05:18.941Z,77888.00
2018-04-02T14:06:18.938Z,72384.00
2018-04-02T14:07:18.960Z,48064.00
2018-04-02T14:08:18.931Z,51456.00
2018-04-02T14:09:18.944Z,57536.00
2018-04-02T14:10:18.929Z,51040.00
2018-04-02T14:11:18.921Z,22368.00
2018-04-02T14:12:18.941Z,28160.00
2018-04-02T14:13:18.919Z,33920.00
2018-04-02T14:14:18.915Z,31776.00
2018-04-02T14:15:18.928Z,30752.00
2018-04-02T14:16:18.893Z,25120.00
2018-04-02T14:17:18.916Z,23456.00
2018-04-02T14:18:18.900Z,23072.00
2018-04-02T14:19:18.886Z,21472.00
2018-04-02T14:20:18.912Z,19424.00
2018-04-02T14:21:18.899Z,19008.00
2018-04-02T14:22:18.928Z,18368.00
2018-04-02T14:23:18.892Z,17504.00
2018-04-02T14:24:18.872Z,17440.00
2018-04-02T14:25:19.340Z,17152.00
2018-04-02T14:26:18.853Z,17472.00
2018-04-02T14:27:18.882Z,18016.00
2018-04-02T14:28:18.860Z,17920.00
2018-04-02T14:29:18.841Z,13792.00
2018-04-02T14:30:18.873Z,14140.00
2018-04-02T14:31:18.836Z,13796.00
2018-04-02T14:32:18.834Z,14472.00
2018-04-02T14:33:18.835Z,16864.00
2018-04-02T14:34:18.837Z,14460.00
2018-04-02T14:35:18.829Z,18688.00
2018-04-02T14:36:18.810Z,12596.00
2018-04-02T14:37:18.816Z,11436.00
2018-04-02T14:38:18.813Z,10344.00
2018-04-02T14:39:18.810Z,9664.00
2018-04-02T14:40:18.812Z,9500.00
2018-04-02T14:41:18.777Z,9264.00
2018-04-02T14:42:18.783Z,9116.00
2018-04-02T14:43:18.825Z,9220.00
2018-04-02T14:44:18.787Z,9388.00
2018-04-02T14:45:18.774Z,9444.00
2018-04-02T14:46:18.784Z,9960.00
2018-04-02T14:47:18.758Z,10236.00
2018-04-02T14:48:18.736Z,10576.00
2018-04-02T14:49:18.730Z,10552.00
2018-04-02T14:50:18.725Z,10448.00
2018-04-02T14:51:18.736Z,10176.00
2018-04-02T14:52:18.710Z,9916.00
2018-04-02T14:53:18.716Z,9956.00
2018-04-02T14:54:18.720Z,9812.00
2018-04-02T14:55:18.697Z,9756.00
2018-04-02T14:56:18.748Z,9448.00
2018-04-02T14:57:18.687Z,9112.00
2018-04-02T14:58:18.668Z,8692.00
2018-04-02T14:59:18.669Z,8416.00
2018-04-02T15:00:18.668Z,8312.00
2018-04-02T15:01:18.656Z,8464.00
2018-04-02T15:02:18.639Z,8792.00
2018-04-02T15:03:18.643Z,9324.00
2018-04-02T15:04:18.645Z,9880.00
2018-04-02T15:05:18.616Z,10424.00
2018-04-02T15:06:18.634Z,11016.00
2018-04-02T15:07:18.601Z,11568.00
2018-04-02T15:08:18.604Z,11880.00
2018-04-02T15:09:18.616Z,12032.00
2018-04-02T15:10:18.583Z,11996.00
2018-04-02T15:11:18.572Z,11868.00
2018-04-02T15:12:18.559Z,11784.00
2018-04-02T15:13:18.576Z,11816.00
2018-04-02T15:14:18.546Z,11912.00
2018-04-02T15:15:18.562Z,12248.00
2018-04-02T15:16:18.586Z,12324.00
2018-04-02T15:17:18.552Z,12448.00
2018-04-02T15:18:18.517Z,12560.00
2018-04-02T15:19:18.508Z,12544.00
2018-04-02T15:20:18.514Z,12084.00
2018-04-02T15:21:18.492Z,11736.00
2018-04-02T15:22:18.516Z,11492.00
2018-04-02T15:23:18.713Z,11352.00
2018-04-02T15:24:18.495Z,11164.00
2018-04-02T15:25:18.456Z,11052.00
2018-04-02T15:26:18.479Z,11116.00
2018-04-02T15:27:18.444Z,10988.00
2018-04-02T15:28:18.434Z,10808.00
2018-04-02T15:29:18.440Z,10660.00
2018-04-02T15:30:18.418Z,10480.00
2018-04-02T15:31:18.446Z,10280.00
2018-04-02T15:32:18.408Z,10160.00
2018-04-02T15:33:18.393Z,10040.00
2018-04-02T15:34:18.421Z,9864.00
2018-04-02T15:36:18.398Z,9400.00
2018-04-02T15:37:18.360Z,9224.00
2018-04-02T15:38:18.366Z,9060.00
2018-04-02T15:39:18.341Z,8948.00
2018-04-02T15:40:18.360Z,8892.00
2018-04-02T15:41:18.325Z,8832.00
2018-04-02T15:42:18.328Z,8748.00
2018-04-02T15:43:18.335Z,8632.00
2018-04-02T15:44:18.307Z,8516.00
2018-04-02T15:45:18.290Z,8456.00
2018-04-02T15:46:18.286Z,8500.00
2018-04-02T15:47:18.286Z,8500.00
2018-04-02T15:48:18.261Z,8476.00
2018-04-02T15:49:18.270Z,8432.00
2018-04-02T15:50:18.242Z,8412.00
2018-04-02T15:51:18.270Z,8404.00
2018-04-02T15:52:18.258Z,8368.00
2018-04-02T15:53:18.264Z,8332.00
2018-04-02T15:54:18.211Z,8308.00
2018-04-02T15:55:18.220Z,8288.00
2018-04-02T15:56:18.219Z,8284.00
2018-04-02T15:57:18.174Z,8260.00
2018-04-02T15:58:18.169Z,8208.00
2018-04-02T15:59:18.171Z,8144.00
2018-04-02T16:00:18.166Z,8060.00
2018-04-02T16:01:18.139Z,7940.00
2018-04-02T16:02:18.162Z,7824.00
2018-04-02T16:03:18.130Z,7668.00
2018-04-02T16:04:18.125Z,7464.00
2018-04-02T16:05:18.111Z,7164.00
2018-04-02T16:06:18.123Z,6800.00
2018-04-02T16:07:18.105Z,6420.00
2018-04-02T16:08:18.089Z,6116.00
2018-04-02T16:09:18.082Z,5840.00
2018-04-02T16:10:18.095Z,5520.00
2018-04-02T16:11:18.088Z,5216.00
2018-04-02T16:12:18.040Z,5040.00
2018-04-02T16:13:18.035Z,4964.00
2018-04-02T16:14:18.031Z,5012.00
2018-04-02T16:15:18.034Z,5196.00
2018-04-02T16:16:18.047Z,5340.00
2018-04-02T16:17:18.025Z,5404.00
2018-04-02T16:18:17.983Z,5428.00
2018-04-02T16:19:17.976Z,5432.00
2018-04-02T16:20:17.966Z,5416.00
2018-04-02T16:21:17.983Z,5396.00
2018-04-02T16:22:17.951Z,5288.00
2018-04-02T16:23:17.951Z,5080.00
2018-04-02T16:24:17.935Z,4848.00
2018-04-02T16:25:17.915Z,4640.00
2018-04-02T16:26:17.931Z,4420.00
2018-04-02T16:27:17.915Z,4188.00
2018-04-02T16:28:17.908Z,3968.00
2018-04-02T16:29:17.882Z,3752.00
2018-04-02T16:30:17.875Z,3576.00
2018-04-02T16:31:17.853Z,3536.00
2018-04-02T16:32:17.846Z,3624.00
2018-04-02T16:33:17.837Z,3808.00
2018-04-02T16:34:17.839Z,3928.00
2018-04-02T16:35:17.840Z,3992.00
2018-04-02T16:36:17.818Z,3944.00
2018-04-02T16:37:17.792Z,3796.00
2018-04-02T16:38:17.827Z,3600.00
2018-04-02T16:39:17.808Z,3412.00
2018-04-02T16:40:17.776Z,3232.00
2018-04-02T16:41:17.763Z,3088.00
2018-04-02T16:42:17.758Z,3000.00
2018-04-02T16:43:17.740Z,2936.00
2018-04-02T16:44:17.750Z,2888.00
2018-04-02T16:45:17.718Z,2816.00
2018-04-02T16:46:17.692Z,2732.00
2018-04-02T16:47:17.686Z,2644.00
2018-04-02T16:48:17.680Z,2568.00
2018-04-02T16:49:17.667Z,2488.00
2018-04-02T16:50:17.738Z,2436.00
2018-04-02T16:51:17.658Z,2364.00
2018-04-02T16:52:17.638Z,2284.00
2018-04-02T16:53:17.645Z,2188.00
2018-04-02T16:54:17.686Z,2104.00
2018-04-02T16:55:17.609Z,2016.00
2018-04-02T16:56:17.597Z,1860.00
2018-04-02T16:57:17.592Z,1736.00
2018-04-02T16:58:17.575Z,1656.00
2018-04-02T16:59:17.558Z,1592.00
2018-04-02T17:00:17.552Z,1540.00
2018-04-02T17:01:17.550Z,1548.00
2018-04-02T17:02:17.529Z,1584.00
2018-04-02T17:03:17.674Z,1600.00
2018-04-02T17:04:17.539Z,1572.00
2018-04-02T17:05:17.507Z,1504.00
2018-04-02T17:06:17.482Z,1428.00
2018-04-02T17:07:17.476Z,1364.00
2018-04-02T17:08:17.492Z,1332.00
2018-04-02T17:09:17.472Z,1300.00
2018-04-02T17:10:17.459Z,1276.00
2018-04-02T17:11:17.470Z,1268.00
2018-04-02T17:12:17.431Z,1240.00
2018-04-02T17:13:17.406Z,1196.00
2018-04-02T17:14:17.395Z,1140.00
2018-04-02T17:15:17.392Z,1104.00
2018-04-02T17:16:17.408Z,1056.00
2018-04-02T17:17:17.380Z,996.00
2018-04-02T17:18:17.354Z,964.00
2018-04-02T17:19:17.348Z,956.00
2018-04-02T17:20:17.354Z,948.00
2018-04-02T17:21:17.325Z,940.00
2018-04-02T17:22:17.317Z,936.00
2018-04-02T17:23:17.308Z,932.00
2018-04-02T17:24:17.282Z,924.00